createdAt,value
2023-02-26T00:00:24.802Z,12.20
2023-02-26T00:03:27.416Z,12.20
2023-02-26T00:06:32.348Z,12.20
2023-02-26T00:09:34.838Z,12.10
2023-02-26T00:12:37.464Z,12.10
2023-02-26T00:15:40.258Z,12.10
2023-02-26T00:18:44.776Z,12.10
2023-02-26T00:21:47.915Z,12.10
2023-02-26T00:24:50.176Z,12.10
2023-02-26T00:27:52.715Z,12.10
2023-02-26T00:30:56.459Z,12.20
2023-02-26T00:34:00.632Z,12.20
2023-02-26T00:37:40.324Z,12.10
2023-02-26T00:40:48.789Z,12.10
2023-02-26T00:43:52.019Z,12.10
2023-02-26T00:47:13.950Z,12.10
2023-02-26T00:50:25.174Z,12.10
2023-02-26T00:53:52.530Z,12.10
2023-02-26T00:56:55.890Z,12.00
2023-02-26T00:59:58.111Z,12.00
2023-02-26T01:03:00.533Z,11.90
2023-02-26T01:06:03.000Z,11.90
2023-02-26T01:09:29.973Z,11.90
2023-02-26T01:12:32.404Z,11.90
2023-02-26T01:15:35.632Z,11.80
2023-02-26T01:19:13.765Z,11.80
2023-02-26T01:22:38.653Z,11.80
2023-02-26T01:26:00.970Z,11.80
2023-02-26T01:29:03.442Z,11.80
2023-02-26T01:32:30.843Z,11.80
2023-02-26T01:35:50.081Z,11.80
2023-02-26T01:39:02.981Z,11.80
2023-02-26T01:42:27.562Z,11.70
2023-02-26T01:45:36.844Z,11.70
2023-02-26T01:48:52.199Z,11.70
2023-02-26T01:51:57.861Z,11.70
2023-02-26T01:55:01.784Z,11.60
2023-02-26T01:58:04.452Z,11.50
2023-02-26T02:01:07.940Z,11.50
2023-02-26T02:04:16.235Z,11.40
2023-02-26T02:07:22.182Z,11.30
2023-02-26T02:10:24.356Z,11.20
2023-02-26T02:13:49.630Z,11.10
2023-02-26T02:17:10.672Z,11.10
2023-02-26T02:20:26.975Z,11.00
2023-02-26T02:23:47.627Z,10.90
2023-02-26T02:26:59.774Z,10.90
2023-02-26T02:30:29.856Z,10.90
2023-02-26T02:33:39.388Z,10.90
2023-02-26T02:36:51.504Z,10.90
2023-02-26T02:39:59.922Z,10.90
2023-02-26T02:43:07.760Z,10.90
2023-02-26T02:46:15.951Z,10.80
2023-02-26T02:49:48.619Z,10.80
2023-02-26T02:53:05.873Z,10.80
2023-02-26T02:56:11.737Z,10.90
2023-02-26T02:59:20.795Z,10.90
2023-02-26T03:02:43.967Z,11.00
2023-02-26T03:05:48.686Z,11.00
2023-02-26T03:08:52.745Z,11.00
2023-02-26T03:11:55.956Z,11.00
2023-02-26T03:14:58.750Z,11.00
2023-02-26T03:18:43.111Z,11.00
2023-02-26T03:21:53.982Z,10.90
2023-02-26T03:25:07.806Z,10.90
2023-02-26T03:28:43.688Z,10.90
2023-02-26T03:32:06.154Z,10.80
2023-02-26T03:35:10.261Z,10.80
2023-02-26T03:38:25.057Z,10.80
2023-02-26T03:41:36.431Z,10.70
2023-02-26T03:44:59.560Z,10.70
2023-02-26T03:48:09.393Z,10.60
2023-02-26T03:51:14.846Z,10.60
2023-02-26T03:54:26.348Z,10.60
2023-02-26T03:57:31.195Z,10.50
2023-02-26T04:00:35.364Z,10.50
2023-02-26T04:03:49.444Z,10.50
2023-02-26T04:06:58.158Z,10.40
2023-02-26T04:10:00.428Z,10.40
2023-02-26T04:13:07.976Z,10.40
2023-02-26T04:16:10.176Z,10.40
2023-02-26T04:19:12.433Z,10.40
2023-02-26T04:22:16.339Z,10.40
2023-02-26T04:25:18.725Z,10.40
2023-02-26T04:28:20.810Z,10.40
2023-02-26T04:31:23.116Z,10.40
2023-02-26T04:34:25.460Z,10.40
2023-02-26T04:37:27.802Z,10.30
2023-02-26T04:40:30.090Z,10.30
2023-02-26T04:43:34.143Z,10.30
2023-02-26T04:46:36.353Z,10.30
2023-02-26T04:49:38.948Z,10.20
2023-02-26T04:52:41.159Z,10.20
2023-02-26T04:55:43.812Z,10.20
2023-02-26T04:58:46.043Z,10.30
2023-02-26T05:01:48.318Z,10.30
2023-02-26T05:04:50.694Z,10.30
2023-02-26T05:07:56.097Z,10.30
2023-02-26T05:10:58.417Z,10.40
2023-02-26T05:14:00.651Z,10.40
2023-02-26T05:17:02.865Z,10.50
2023-02-26T05:20:06.524Z,10.50
2023-02-26T05:23:08.661Z,10.50
2023-02-26T05:26:11.916Z,10.60
2023-02-26T05:29:14.428Z,10.70
2023-02-26T05:32:17.091Z,10.70
2023-02-26T05:35:19.621Z,10.80
2023-02-26T05:38:21.809Z,10.80
2023-02-26T05:41:24.183Z,10.90
2023-02-26T05:44:26.556Z,10.90
2023-02-26T05:47:29.981Z,10.90
2023-02-26T05:50:32.236Z,11.00
2023-02-26T05:53:35.365Z,11.00
2023-02-26T05:56:37.696Z,11.00
2023-02-26T05:59:39.940Z,11.00
2023-02-26T06:02:42.607Z,11.10
2023-02-26T06:05:44.914Z,11.10
2023-02-26T06:08:47.504Z,11.10
2023-02-26T06:11:49.722Z,11.10
2023-02-26T06:14:51.833Z,11.10
2023-02-26T06:17:54.216Z,11.10
2023-02-26T06:20:56.401Z,11.10
2023-02-26T06:23:59.752Z,11.10
2023-02-26T06:27:02.029Z,11.10
2023-02-26T06:30:05.295Z,11.20
2023-02-26T06:33:07.522Z,11.20
2023-02-26T06:36:09.989Z,11.20
2023-02-26T06:39:15.302Z,11.20
2023-02-26T06:42:19.979Z,11.20
2023-02-26T06:45:22.822Z,11.20
2023-02-26T06:48:27.689Z,11.20
2023-02-26T06:51:31.176Z,11.20
2023-02-26T06:54:33.774Z,11.10
2023-02-26T06:57:36.574Z,11.10
2023-02-26T07:00:40.586Z,11.10
2023-02-26T07:03:43.743Z,11.10
2023-02-26T07:06:46.212Z,11.00
2023-02-26T07:09:48.503Z,11.00
2023-02-26T07:12:50.835Z,11.00
2023-02-26T07:15:53.032Z,10.90
2023-02-26T07:18:55.345Z,10.90
2023-02-26T07:21:57.664Z,11.10
2023-02-26T07:25:00.581Z,11.20
2023-02-26T07:28:02.786Z,11.30
2023-02-26T07:31:05.608Z,11.20
2023-02-26T07:34:07.844Z,11.10
2023-02-26T07:37:10.007Z,11.10
2023-02-26T07:40:13.832Z,11.00
2023-02-26T07:43:16.303Z,11.00
2023-02-26T07:46:18.581Z,10.90
2023-02-26T07:49:20.908Z,10.90
2023-02-26T07:52:23.537Z,10.90
2023-02-26T07:55:25.741Z,11.00
2023-02-26T07:58:28.410Z,11.00
2023-02-26T08:01:30.531Z,10.90
2023-02-26T08:04:33.470Z,11.00
2023-02-26T08:07:35.722Z,11.10
2023-02-26T08:10:41.902Z,11.30
2023-02-26T08:13:44.263Z,11.60
2023-02-26T08:16:46.600Z,11.70
2023-02-26T08:19:48.953Z,11.90
2023-02-26T08:22:51.695Z,11.80
2023-02-26T08:26:05.514Z,11.90
2023-02-26T08:29:08.259Z,11.90
2023-02-26T08:32:10.585Z,11.90
2023-02-26T08:35:13.064Z,11.90
2023-02-26T08:38:16.220Z,11.90
2023-02-26T08:41:21.201Z,11.90
2023-02-26T08:44:23.676Z,12.00
2023-02-26T08:47:29.004Z,12.10
2023-02-26T08:50:32.828Z,12.70
2023-02-26T08:53:35.036Z,13.30
2023-02-26T08:56:38.674Z,14.30
2023-02-26T08:59:40.902Z,15.10
2023-02-26T09:02:43.439Z,16.20
2023-02-26T09:05:47.972Z,17.50
2023-02-26T09:08:50.435Z,19.60
2023-02-26T09:11:53.077Z,21.20
2023-02-26T09:14:55.267Z,21.90
2023-02-26T09:17:58.064Z,22.80
2023-02-26T09:21:00.244Z,23.90
2023-02-26T09:24:02.521Z,24.60
2023-02-26T09:27:04.844Z,25.00
2023-02-26T09:30:07.999Z,25.60
2023-02-26T09:33:10.170Z,26.30
2023-02-26T09:36:12.480Z,27.10
2023-02-26T09:39:14.672Z,27.40
2023-02-26T09:42:26.711Z,28.00
2023-02-26T09:45:36.647Z,28.50
2023-02-26T09:48:40.648Z,28.20
2023-02-26T09:51:44.941Z,29.20
2023-02-26T09:54:49.546Z,29.60
2023-02-26T09:57:54.676Z,29.50
2023-02-26T10:01:16.330Z,29.80
2023-02-26T10:04:57.439Z,29.80
2023-02-26T10:08:06.028Z,29.60
2023-02-26T10:11:20.080Z,29.00
2023-02-26T10:14:28.201Z,30.30
2023-02-26T10:17:51.499Z,29.90
2023-02-26T10:21:33.053Z,29.50
2023-02-26T10:24:43.411Z,30.50
2023-02-26T10:28:10.987Z,30.60
2023-02-26T10:31:40.455Z,32.00
2023-02-26T10:34:53.017Z,32.80
2023-02-26T10:38:03.097Z,33.10
2023-02-26T10:41:16.436Z,31.30
2023-02-26T10:44:41.651Z,30.00
2023-02-26T10:47:46.892Z,29.10
2023-02-26T10:50:53.972Z,28.20
2023-02-26T10:54:05.424Z,28.10
2023-02-26T10:57:19.301Z,27.60
2023-02-26T11:00:22.886Z,27.60
2023-02-26T11:03:39.183Z,27.20
2023-02-26T11:07:11.633Z,25.80
2023-02-26T11:10:21.482Z,25.90
2023-02-26T11:13:29.684Z,26.90
2023-02-26T11:16:32.572Z,27.10
2023-02-26T11:19:41.686Z,26.90
2023-02-26T11:22:52.707Z,26.70
2023-02-26T11:26:07.058Z,24.80
2023-02-26T11:29:16.050Z,22.90
2023-02-26T11:32:24.152Z,21.10
2023-02-26T11:35:27.404Z,19.60
2023-02-26T11:38:38.159Z,18.60
2023-02-26T11:41:41.033Z,17.90
2023-02-26T11:44:48.414Z,17.20
2023-02-26T11:48:02.489Z,16.50
2023-02-26T11:51:06.958Z,16.20
2023-02-26T11:54:24.372Z,16.20
2023-02-26T11:57:29.587Z,16.20
2023-02-26T12:00:38.564Z,16.10
2023-02-26T12:03:46.369Z,16.10
2023-02-26T12:06:52.993Z,16.30
2023-02-26T12:09:55.356Z,16.40
2023-02-26T12:13:20.995Z,16.40
2023-02-26T12:16:34.943Z,16.50
2023-02-26T12:20:02.698Z,16.60
2023-02-26T12:23:16.826Z,16.80
2023-02-26T12:26:35.751Z,16.90
2023-02-26T12:30:10.144Z,16.80
2023-02-26T12:33:30.386Z,16.80
2023-02-26T12:36:47.589Z,16.70
2023-02-26T12:40:38.385Z,16.70
2023-02-26T12:43:43.330Z,16.60
2023-02-26T12:47:17.715Z,16.50
2023-02-26T12:50:40.934Z,16.50
2023-02-26T12:54:10.774Z,16.80
2023-02-26T12:57:21.710Z,16.90
2023-02-26T13:00:40.837Z,17.00
2023-02-26T13:04:10.936Z,16.90
2023-02-26T13:07:40.413Z,16.90
2023-02-26T13:11:11.082Z,17.00
2023-02-26T13:14:25.265Z,16.90
2023-02-26T13:18:02.349Z,17.00
2023-02-26T13:21:14.186Z,16.90
2023-02-26T13:24:22.715Z,16.50
2023-02-26T13:27:31.370Z,16.40
2023-02-26T13:30:40.848Z,16.30
2023-02-26T13:33:44.745Z,16.20
2023-02-26T13:36:48.188Z,16.10
2023-02-26T13:40:17.767Z,16.10
2023-02-26T13:43:57.868Z,16.20
2023-02-26T13:47:42.851Z,16.50
2023-02-26T13:50:50.933Z,16.60
2023-02-26T13:53:57.886Z,16.80
2023-02-26T13:57:23.134Z,16.60
2023-02-26T14:00:36.424Z,16.60
2023-02-26T14:03:53.035Z,16.60
2023-02-26T14:06:59.671Z,16.50
2023-02-26T14:10:15.232Z,16.20
2023-02-26T14:13:23.222Z,15.90
2023-02-26T14:16:29.330Z,15.90
2023-02-26T14:19:39.405Z,16.00
2023-02-26T14:22:43.697Z,16.10
2023-02-26T14:25:52.955Z,16.00
2023-02-26T14:29:33.876Z,16.00
2023-02-26T14:32:54.651Z,16.00
2023-02-26T14:35:58.582Z,16.00
2023-02-26T14:39:05.151Z,16.20
2023-02-26T14:42:17.393Z,16.30
2023-02-26T14:45:25.638Z,16.40
2023-02-26T14:48:32.643Z,16.50
2023-02-26T14:52:04.121Z,16.60
2023-02-26T14:55:28.890Z,16.80
2023-02-26T14:58:45.479Z,16.70
2023-02-26T15:01:50.540Z,16.80
2023-02-26T15:05:12.208Z,16.80
2023-02-26T15:08:36.122Z,16.70
2023-02-26T15:11:56.707Z,16.70
2023-02-26T15:15:28.184Z,16.60
2023-02-26T15:18:51.318Z,16.80
2023-02-26T15:22:11.875Z,16.90
2023-02-26T15:25:38.926Z,17.10
2023-02-26T15:28:42.298Z,17.20
2023-02-26T15:31:53.352Z,17.10
2023-02-26T15:35:16.427Z,17.10
2023-02-26T15:38:19.362Z,17.10
2023-02-26T15:41:23.052Z,17.10
2023-02-26T15:44:30.541Z,17.10
2023-02-26T15:47:33.047Z,17.10
2023-02-26T15:50:43.638Z,17.20
2023-02-26T15:53:51.676Z,17.30
2023-02-26T15:56:53.940Z,17.50
2023-02-26T16:00:07.283Z,17.60
2023-02-26T16:03:11.042Z,17.70
2023-02-26T16:06:17.479Z,17.70
2023-02-26T16:09:38.807Z,17.70
2023-02-26T16:12:43.930Z,17.70
2023-02-26T16:15:48.288Z,17.70
2023-02-26T16:18:52.137Z,17.70
2023-02-26T16:21:56.412Z,17.60
2023-02-26T16:25:15.981Z,17.70
2023-02-26T16:28:45.772Z,17.50
2023-02-26T16:31:54.546Z,17.40
2023-02-26T16:35:01.135Z,17.10
2023-02-26T16:38:21.139Z,16.90
2023-02-26T16:41:26.430Z,16.80
2023-02-26T16:44:31.601Z,16.60
2023-02-26T16:47:34.024Z,16.50
2023-02-26T16:50:37.550Z,16.40
2023-02-26T16:53:49.496Z,16.30
2023-02-26T16:56:58.650Z,16.30
2023-02-26T17:00:09.684Z,16.30
2023-02-26T17:03:21.029Z,16.10
2023-02-26T17:06:23.301Z,16.00
2023-02-26T17:09:34.860Z,16.00
2023-02-26T17:12:42.712Z,15.90
2023-02-26T17:15:47.226Z,15.80
2023-02-26T17:18:49.505Z,15.70
2023-02-26T17:21:55.070Z,15.60
2023-02-26T17:24:57.518Z,15.60
2023-02-26T17:27:59.772Z,15.50
2023-02-26T17:31:04.035Z,15.40
2023-02-26T17:34:10.540Z,15.40
2023-02-26T17:37:15.489Z,15.30
2023-02-26T17:40:27.048Z,15.20
2023-02-26T17:43:29.650Z,15.10
2023-02-26T17:46:32.397Z,15.00
2023-02-26T17:49:34.560Z,14.90
2023-02-26T17:52:36.638Z,14.90
2023-02-26T17:55:39.923Z,14.80
2023-02-26T17:58:45.733Z,14.70
2023-02-26T18:01:47.853Z,14.60
2023-02-26T18:04:54.790Z,14.50
2023-02-26T18:08:02.105Z,14.40
2023-02-26T18:11:04.940Z,14.30
2023-02-26T18:14:07.091Z,14.20
2023-02-26T18:17:33.598Z,14.20
2023-02-26T18:20:35.778Z,14.00
2023-02-26T18:23:38.078Z,13.90
2023-02-26T18:26:40.270Z,13.90
2023-02-26T18:29:42.796Z,13.80
2023-02-26T18:32:45.565Z,13.70
2023-02-26T18:35:55.168Z,13.60
2023-02-26T18:38:59.625Z,13.50
2023-02-26T18:42:03.670Z,13.40
2023-02-26T18:45:06.720Z,13.40
2023-02-26T18:48:12.047Z,13.30
2023-02-26T18:51:15.148Z,13.20
2023-02-26T18:54:17.559Z,13.30
2023-02-26T18:57:19.763Z,13.20
2023-02-26T19:00:22.273Z,13.10
2023-02-26T19:03:24.658Z,13.10
2023-02-26T19:06:26.876Z,13.00
2023-02-26T19:09:29.125Z,13.00
2023-02-26T19:12:32.794Z,13.00
2023-02-26T19:15:34.950Z,12.90
2023-02-26T19:18:37.111Z,12.80
2023-02-26T19:21:40.411Z,12.80
2023-02-26T19:24:43.370Z,12.80
2023-02-26T19:27:45.665Z,12.70
2023-02-26T19:30:47.827Z,12.70
2023-02-26T19:33:50.016Z,12.70
2023-02-26T19:36:53.595Z,12.60
2023-02-26T19:39:55.774Z,12.60
2023-02-26T19:42:58.449Z,12.60
2023-02-26T19:46:00.659Z,12.50
2023-02-26T19:49:02.878Z,12.40
2023-02-26T19:52:06.103Z,12.40
2023-02-26T19:55:09.336Z,12.40
2023-02-26T19:58:13.420Z,12.40
2023-02-26T20:01:16.489Z,12.40
2023-02-26T20:04:19.196Z,12.30
2023-02-26T20:07:21.517Z,12.30
2023-02-26T20:10:24.598Z,12.30
2023-02-26T20:13:29.956Z,12.20
2023-02-26T20:16:32.173Z,12.20
2023-02-26T20:19:37.349Z,12.20
2023-02-26T20:22:39.582Z,12.20
2023-02-26T20:25:43.669Z,12.10
2023-02-26T20:28:46.133Z,12.10
2023-02-26T20:31:50.244Z,12.20
2023-02-26T20:34:54.004Z,12.10
2023-02-26T20:37:56.170Z,12.10
2023-02-26T20:40:58.601Z,12.10
2023-02-26T20:44:01.185Z,12.10
2023-02-26T20:47:06.160Z,12.00
2023-02-26T20:50:09.820Z,12.00
2023-02-26T20:53:12.039Z,12.00
2023-02-26T20:56:14.545Z,12.00
2023-02-26T20:59:18.403Z,12.00
2023-02-26T21:02:21.261Z,11.90
2023-02-26T21:05:23.820Z,11.90
2023-02-26T21:08:26.049Z,11.90
2023-02-26T21:11:31.319Z,11.90
2023-02-26T21:14:33.580Z,11.80
2023-02-26T21:17:37.439Z,11.80
2023-02-26T21:20:39.532Z,11.80
2023-02-26T21:23:41.754Z,11.80
2023-02-26T21:26:43.945Z,11.80
2023-02-26T21:29:46.152Z,11.80
2023-02-26T21:32:48.264Z,11.70
2023-02-26T21:35:51.800Z,11.70
2023-02-26T21:38:53.990Z,11.70
2023-02-26T21:41:56.651Z,11.70
2023-02-26T21:44:59.112Z,11.60
2023-02-26T21:48:01.431Z,11.60
2023-02-26T21:51:03.992Z,11.60
2023-02-26T21:54:06.266Z,11.60
2023-02-26T21:57:08.950Z,11.60
2023-02-26T22:00:11.860Z,11.60
2023-02-26T22:03:14.168Z,11.60
2023-02-26T22:06:16.370Z,11.50
2023-02-26T22:09:19.378Z,11.50
2023-02-26T22:12:21.785Z,11.40
2023-02-26T22:15:24.467Z,11.50
2023-02-26T22:18:26.715Z,11.50
2023-02-26T22:21:29.094Z,11.40
2023-02-26T22:24:31.477Z,11.40
2023-02-26T22:27:34.155Z,11.40
2023-02-26T22:30:36.300Z,11.40
2023-02-26T22:33:38.844Z,11.40
2023-02-26T22:36:41.044Z,11.40
2023-02-26T22:39:43.320Z,11.30
2023-02-26T22:42:45.592Z,11.30
2023-02-26T22:45:50.549Z,11.30
2023-02-26T22:48:52.557Z,11.30
2023-02-26T22:51:54.703Z,11.20
2023-02-26T22:54:56.932Z,11.30
2023-02-26T22:57:59.139Z,11.30
2023-02-26T23:01:03.195Z,11.20
2023-02-26T23:04:05.722Z,11.20
2023-02-26T23:07:08.063Z,11.20
2023-02-26T23:10:13.653Z,11.20
2023-02-26T23:13:18.593Z,11.20
2023-02-26T23:16:20.797Z,11.20
2023-02-26T23:19:22.909Z,11.20
2023-02-26T23:22:25.120Z,11.20
2023-02-26T23:25:27.544Z,11.20
2023-02-26T23:28:29.958Z,11.20
2023-02-26T23:31:32.824Z,11.20
2023-02-26T23:34:36.317Z,11.20
2023-02-26T23:37:38.570Z,11.20
2023-02-26T23:40:40.946Z,11.20
2023-02-26T23:43:43.128Z,11.20
2023-02-26T23:46:49.723Z,11.20
2023-02-26T23:49:53.134Z,11.20
2023-02-26T23:53:01.796Z,11.20
2023-02-26T23:56:04.322Z,11.20
2023-02-26T23:59:06.519Z,11.20
